createdAt,value
2023-04-10T00:00:31.721Z,2.45
2023-04-10T00:03:04.153Z,2.58
2023-04-10T00:05:32.932Z,2.69
2023-04-10T00:08:01.471Z,2.76
2023-04-10T00:10:31.921Z,3.00
2023-04-10T00:13:01.167Z,3.12
2023-04-10T00:15:29.431Z,3.39
2023-04-10T00:17:57.491Z,3.59
2023-04-10T00:20:26.588Z,3.03
2023-04-10T00:22:55.039Z,3.34
2023-04-10T00:25:23.755Z,3.39
2023-04-10T00:27:51.714Z,2.79
2023-04-10T00:30:21.301Z,3.00
2023-04-10T00:32:49.433Z,3.29
2023-04-10T00:35:17.541Z,3.15
2023-04-10T00:37:45.838Z,2.77
2023-04-10T00:40:13.834Z,2.76
2023-04-10T00:42:42.026Z,3.13
2023-04-10T00:45:11.437Z,2.50
2023-04-10T00:47:39.534Z,2.65
2023-04-10T00:50:07.855Z,2.83
2023-04-10T00:52:36.139Z,2.80
2023-04-10T00:55:04.840Z,2.41
2023-04-10T00:57:33.802Z,2.56
2023-04-10T01:00:02.209Z,2.88
2023-04-10T01:02:30.235Z,3.21
2023-04-10T01:04:58.741Z,3.06
2023-04-10T01:08:02.587Z,2.95
2023-04-10T01:10:40.439Z,2.99
2023-04-10T01:13:15.689Z,2.91
2023-04-10T01:16:03.496Z,3.01
2023-04-10T01:18:48.550Z,3.25
2023-04-10T01:21:17.364Z,3.19
2023-04-10T01:24:01.063Z,3.35
2023-04-10T01:26:38.579Z,3.73
2023-04-10T01:29:15.709Z,3.36
2023-04-10T01:31:53.646Z,3.31
2023-04-10T01:34:28.380Z,3.07
2023-04-10T01:37:00.677Z,3.25
2023-04-10T01:39:31.091Z,3.20
2023-04-10T01:42:00.204Z,3.18
2023-04-10T01:44:30.575Z,3.13
2023-04-10T01:46:59.489Z,3.64
2023-04-10T01:49:29.205Z,3.53
2023-04-10T01:52:00.939Z,3.17
2023-04-10T01:54:29.949Z,3.21
2023-04-10T01:56:59.868Z,3.28
2023-04-10T01:59:28.171Z,3.71
2023-04-10T02:02:00.251Z,3.79
2023-04-10T02:04:28.854Z,3.92
2023-04-10T02:07:11.528Z,3.64
2023-04-10T02:09:59.489Z,3.74
2023-04-10T02:12:30.593Z,3.73
2023-04-10T02:15:01.973Z,4.14
2023-04-10T02:17:31.320Z,4.24
2023-04-10T02:20:00.570Z,4.50
2023-04-10T02:22:28.839Z,4.65
2023-04-10T02:24:57.569Z,4.55
2023-04-10T02:27:34.637Z,4.92
2023-04-10T02:30:03.859Z,4.87
2023-04-10T02:32:35.607Z,4.99
2023-04-10T02:35:04.062Z,5.25
2023-04-10T02:37:33.092Z,4.96
2023-04-10T02:40:01.394Z,4.86
2023-04-10T02:42:30.962Z,4.61
2023-04-10T02:44:59.688Z,4.36
2023-04-10T02:47:31.230Z,4.19
2023-04-10T02:49:59.505Z,4.51
2023-04-10T02:52:31.078Z,4.31
2023-04-10T02:54:59.378Z,4.14
2023-04-10T02:57:28.884Z,3.64
2023-04-10T02:59:58.288Z,3.34
2023-04-10T03:02:27.379Z,3.45
2023-04-10T03:04:56.227Z,3.09
2023-04-10T03:07:24.452Z,3.09
2023-04-10T03:09:52.816Z,2.93
2023-04-10T03:12:20.803Z,2.98
2023-04-10T03:14:48.809Z,2.68
2023-04-10T03:17:17.199Z,2.96
2023-04-10T03:19:46.014Z,3.11
2023-04-10T03:22:14.011Z,2.45
2023-04-10T03:24:42.318Z,2.20
2023-04-10T03:27:10.381Z,3.12
2023-04-10T03:29:39.068Z,2.75
2023-04-10T03:32:07.993Z,2.35
2023-04-10T03:34:36.792Z,2.28
2023-04-10T03:37:04.852Z,2.50
2023-04-10T03:39:33.761Z,2.19
2023-04-10T03:42:01.732Z,2.15
2023-04-10T03:44:30.118Z,2.14
2023-04-10T03:46:58.466Z,2.16
2023-04-10T03:49:26.662Z,2.11
2023-04-10T03:52:00.853Z,2.34
2023-04-10T03:54:29.456Z,2.35
2023-04-10T03:56:58.043Z,2.40
2023-04-10T03:59:37.791Z,2.61
2023-04-10T04:02:08.775Z,2.96
2023-04-10T04:04:37.478Z,2.94
2023-04-10T04:07:06.349Z,3.02
2023-04-10T04:09:34.526Z,3.01
2023-04-10T04:12:02.933Z,3.15
2023-04-10T04:14:34.422Z,3.55
2023-04-10T04:17:03.540Z,3.92
2023-04-10T04:19:31.778Z,4.02
2023-04-10T04:22:02.140Z,4.30
2023-04-10T04:24:32.359Z,4.09
2023-04-10T04:27:01.497Z,4.22
2023-04-10T04:29:30.297Z,4.26
2023-04-10T04:31:59.373Z,4.07
2023-04-10T04:34:27.657Z,4.19
2023-04-10T04:37:01.464Z,4.37
2023-04-10T04:39:32.414Z,4.51
2023-04-10T04:42:01.654Z,4.51
2023-04-10T04:44:31.482Z,4.82
2023-04-10T04:46:59.861Z,4.97
2023-04-10T04:51:59.621Z,5.88
2023-04-10T04:54:28.594Z,6.26
2023-04-10T04:56:58.498Z,6.07
2023-04-10T04:59:28.357Z,6.15
2023-04-10T05:01:58.988Z,6.26
2023-04-10T05:04:27.711Z,6.42
2023-04-10T05:06:56.021Z,6.68
2023-04-10T05:09:23.958Z,6.98
2023-04-10T05:11:54.883Z,6.68
2023-04-10T05:14:25.698Z,6.60
2023-04-10T05:16:56.958Z,6.32
2023-04-10T05:19:25.768Z,6.82
2023-04-10T05:21:54.584Z,6.82
2023-04-10T05:24:23.087Z,6.54
2023-04-10T05:26:52.107Z,6.68
2023-04-10T05:29:20.512Z,7.44
2023-04-10T05:31:53.432Z,7.26
2023-04-10T05:34:21.741Z,7.30
2023-04-10T05:36:50.677Z,7.82
2023-04-10T05:39:19.085Z,8.20
2023-04-10T05:41:47.065Z,8.83
2023-04-10T05:44:15.559Z,8.47
2023-04-10T05:46:43.964Z,8.54
2023-04-10T05:49:13.938Z,8.53
2023-04-10T05:51:41.915Z,8.87
2023-04-10T05:54:12.484Z,9.36
2023-04-10T05:56:40.680Z,9.67
2023-04-10T05:59:08.862Z,9.06
2023-04-10T06:01:39.110Z,9.39
2023-04-10T06:04:07.672Z,9.20
2023-04-10T06:06:36.442Z,9.43
2023-04-10T06:09:04.798Z,9.62
2023-04-10T06:11:33.110Z,9.97
2023-04-10T06:14:01.635Z,10.17
2023-04-10T06:16:30.213Z,10.15
2023-04-10T06:18:59.303Z,10.98
2023-04-10T06:21:27.277Z,11.39
2023-04-10T06:23:56.627Z,10.77
2023-04-10T06:26:26.092Z,11.48
2023-04-10T06:28:54.465Z,11.25
2023-04-10T06:31:23.268Z,11.19
2023-04-10T06:33:51.716Z,12.31
2023-04-10T06:36:19.706Z,12.97
2023-04-10T06:38:47.887Z,12.71
2023-04-10T06:41:16.199Z,12.78
2023-04-10T06:43:44.104Z,13.07
2023-04-10T06:46:12.624Z,14.20
2023-04-10T06:48:41.098Z,14.36
2023-04-10T06:51:08.992Z,14.05
2023-04-10T06:53:36.900Z,15.19
2023-04-10T06:56:06.229Z,15.29
2023-04-10T06:58:34.130Z,14.87
2023-04-10T07:01:04.806Z,15.71
2023-04-10T07:03:34.050Z,14.65
2023-04-10T07:06:03.498Z,15.18
2023-04-10T07:08:31.610Z,15.36
2023-04-10T07:10:59.990Z,15.87
2023-04-10T07:13:27.917Z,15.46
2023-04-10T07:15:55.881Z,15.11
2023-04-10T07:18:24.190Z,14.60
2023-04-10T07:20:52.186Z,14.71
2023-04-10T07:23:20.638Z,15.31
2023-04-10T07:25:48.913Z,16.39
2023-04-10T07:28:16.823Z,16.47
2023-04-10T07:30:44.772Z,16.60
2023-04-10T07:33:13.281Z,16.60
2023-04-10T07:35:41.913Z,16.94
2023-04-10T07:38:09.795Z,16.17
2023-04-10T07:40:38.028Z,16.61
2023-04-10T07:43:05.982Z,16.42
2023-04-10T07:45:33.998Z,16.62
2023-04-10T07:48:02.936Z,16.66
2023-04-10T07:50:30.841Z,18.22
2023-04-10T07:53:03.638Z,16.74
2023-04-10T07:55:32.106Z,17.37
2023-04-10T07:58:00.593Z,17.11
2023-04-10T08:00:28.574Z,17.80
2023-04-10T08:02:57.185Z,17.41
2023-04-10T08:05:25.904Z,18.00
2023-04-10T08:07:53.892Z,18.93
2023-04-10T08:10:22.308Z,17.87
2023-04-10T08:12:50.212Z,18.36
2023-04-10T08:15:18.673Z,18.76
2023-04-10T08:17:47.006Z,19.51
2023-04-10T08:20:15.218Z,20.45
2023-04-10T08:22:43.072Z,20.37
2023-04-10T08:25:11.406Z,21.31
2023-04-10T08:27:39.264Z,20.96
2023-04-10T08:30:08.206Z,20.42
2023-04-10T08:32:36.829Z,19.23
2023-04-10T08:35:05.209Z,20.64
2023-04-10T08:37:33.411Z,20.05
2023-04-10T08:40:02.100Z,19.65
2023-04-10T08:42:32.196Z,19.68
2023-04-10T08:45:01.760Z,20.46
2023-04-10T08:47:30.473Z,20.04
2023-04-10T08:50:03.486Z,19.77
2023-04-10T08:52:35.154Z,19.64
2023-04-10T08:55:06.395Z,19.31
2023-04-10T08:57:34.669Z,19.27
2023-04-10T09:02:55.585Z,19.26
2023-04-10T09:05:25.662Z,19.95
2023-04-10T09:07:53.959Z,21.07
2023-04-10T09:10:21.996Z,20.91
2023-04-10T09:12:50.134Z,19.91
2023-04-10T09:15:18.415Z,20.86
2023-04-10T09:18:01.129Z,20.19
2023-04-10T09:20:31.415Z,20.60
2023-04-10T09:22:59.498Z,20.24
2023-04-10T09:25:36.637Z,20.55
2023-04-10T09:28:06.713Z,20.25
2023-04-10T09:30:40.227Z,20.25
2023-04-10T09:33:28.214Z,21.54
2023-04-10T09:36:04.375Z,21.46
2023-04-10T09:38:32.941Z,21.34
2023-04-10T09:41:08.862Z,20.56
2023-04-10T09:43:37.239Z,20.70
2023-04-10T09:46:05.543Z,20.63
2023-04-10T09:48:33.444Z,20.43
2023-04-10T09:51:02.178Z,19.92
2023-04-10T09:53:30.277Z,20.62
2023-04-10T09:55:58.317Z,20.68
2023-04-10T09:58:26.817Z,19.60
2023-04-10T10:00:54.836Z,20.01
2023-04-10T10:03:23.361Z,20.69
2023-04-10T10:05:52.002Z,21.35
2023-04-10T10:08:20.449Z,21.61
2023-04-10T10:10:57.673Z,21.40
2023-04-10T10:13:32.072Z,21.94
2023-04-10T10:16:08.224Z,21.16
2023-04-10T10:18:48.324Z,20.37
2023-04-10T10:21:17.422Z,20.49
2023-04-10T10:23:46.329Z,21.40
2023-04-10T10:26:15.081Z,22.29
2023-04-10T10:28:44.635Z,20.74
2023-04-10T10:31:13.151Z,22.20
2023-04-10T10:33:41.595Z,20.20
2023-04-10T10:36:11.642Z,19.96
2023-04-10T10:38:42.618Z,20.47
2023-04-10T10:41:20.823Z,19.60
2023-04-10T10:44:12.451Z,19.86
2023-04-10T10:47:09.846Z,18.89
2023-04-10T10:49:54.632Z,19.89
2023-04-10T10:52:42.856Z,20.16
2023-04-10T10:55:31.902Z,19.58
2023-04-10T10:58:05.555Z,19.24
2023-04-10T11:00:52.263Z,18.28
2023-04-10T11:03:20.990Z,18.93
2023-04-10T11:05:56.806Z,18.67
2023-04-10T11:08:34.308Z,18.35
2023-04-10T11:11:09.342Z,17.51
2023-04-10T11:13:39.445Z,16.37
2023-04-10T11:16:10.872Z,16.73
2023-04-10T11:18:45.077Z,16.77
2023-04-10T11:21:13.796Z,16.66
2023-04-10T11:23:50.906Z,16.14
2023-04-10T11:26:35.082Z,16.41
2023-04-10T11:29:16.332Z,17.19
2023-04-10T11:31:45.367Z,16.40
2023-04-10T11:34:15.837Z,17.50
2023-04-10T11:36:44.931Z,18.89
2023-04-10T11:39:14.385Z,16.59
2023-04-10T11:41:46.729Z,16.73
2023-04-10T11:44:17.411Z,16.32
2023-04-10T11:46:51.114Z,17.39
2023-04-10T11:49:21.567Z,17.13
2023-04-10T11:51:50.993Z,16.92
2023-04-10T11:54:21.397Z,15.62
2023-04-10T11:57:07.380Z,14.41
2023-04-10T11:59:36.028Z,14.41
2023-04-10T12:02:15.252Z,14.51
2023-04-10T12:04:44.959Z,15.14
2023-04-10T12:07:13.034Z,15.41
2023-04-10T12:09:41.174Z,15.70
2023-04-10T12:12:09.533Z,15.94
2023-04-10T12:14:40.074Z,15.67
2023-04-10T12:17:09.364Z,15.69
2023-04-10T12:19:39.208Z,15.92
2023-04-10T12:22:07.871Z,16.74
2023-04-10T12:24:48.567Z,16.44
2023-04-10T12:27:25.754Z,17.14
2023-04-10T12:29:58.232Z,17.60
2023-04-10T12:32:28.039Z,16.55
2023-04-10T12:34:57.975Z,16.74
2023-04-10T12:37:46.936Z,17.39
2023-04-10T12:40:15.693Z,16.97
2023-04-10T12:42:44.182Z,17.46
2023-04-10T12:45:14.256Z,16.28
2023-04-10T12:47:51.958Z,16.00
2023-04-10T12:50:24.431Z,15.82
2023-04-10T12:53:03.990Z,14.98
2023-04-10T12:55:34.114Z,15.50
2023-04-10T12:58:18.215Z,16.32
2023-04-10T13:00:48.261Z,15.55
2023-04-10T13:03:17.030Z,15.74
2023-04-10T13:05:45.411Z,15.95
2023-04-10T13:08:14.734Z,15.85
2023-04-10T13:10:43.795Z,15.77
2023-04-10T13:13:14.417Z,17.06
2023-04-10T13:15:43.206Z,17.45
2023-04-10T13:18:11.361Z,17.83
2023-04-10T13:20:41.030Z,17.86
2023-04-10T13:23:09.556Z,18.41
2023-04-10T13:25:40.147Z,17.78
2023-04-10T13:28:11.733Z,17.33
2023-04-10T13:30:41.806Z,17.22
2023-04-10T13:33:10.550Z,17.98
2023-04-10T13:35:40.518Z,18.52
2023-04-10T13:38:09.704Z,18.27
2023-04-10T13:40:38.221Z,18.49
2023-04-10T13:43:06.641Z,17.38
2023-04-10T13:45:35.185Z,16.79
2023-04-10T13:48:04.271Z,16.94
2023-04-10T13:50:32.320Z,17.60
2023-04-10T13:53:00.675Z,18.40
2023-04-10T13:55:28.707Z,18.52
2023-04-10T13:57:56.672Z,19.23
2023-04-10T14:00:24.917Z,18.48
2023-04-10T14:02:53.412Z,18.45
2023-04-10T14:05:21.522Z,18.46
2023-04-10T14:07:52.097Z,17.96
2023-04-10T14:10:21.109Z,18.07
2023-04-10T14:12:49.046Z,17.83
2023-04-10T14:15:17.162Z,18.46
2023-04-10T14:17:45.556Z,18.72
2023-04-10T14:20:13.808Z,18.25
2023-04-10T14:22:41.604Z,18.23
2023-04-10T14:25:13.709Z,17.98
2023-04-10T14:27:42.799Z,18.23
2023-04-10T14:30:11.442Z,18.69
2023-04-10T14:32:39.750Z,17.74
2023-04-10T14:35:08.294Z,18.29
2023-04-10T14:37:36.848Z,18.58
2023-04-10T14:40:05.290Z,18.16
2023-04-10T14:42:33.390Z,17.76
2023-04-10T14:45:01.835Z,18.32
2023-04-10T14:47:29.880Z,18.32
2023-04-10T14:49:58.159Z,17.26
2023-04-10T14:52:26.429Z,16.98
2023-04-10T14:54:54.300Z,16.63
2023-04-10T14:57:22.389Z,16.48
2023-04-10T14:59:50.882Z,16.35
2023-04-10T15:02:18.816Z,16.62
2023-04-10T15:04:46.878Z,16.96
2023-04-10T15:07:15.423Z,17.08
2023-04-10T15:09:44.824Z,17.10
2023-04-10T15:12:12.764Z,17.18
2023-04-10T15:14:41.113Z,16.12
2023-04-10T15:17:09.137Z,16.49
2023-04-10T15:19:37.215Z,16.37
2023-04-10T15:22:05.547Z,17.06
2023-04-10T15:24:43.365Z,16.51
2023-04-10T15:27:15.651Z,16.37
2023-04-10T15:29:43.632Z,16.27
2023-04-10T15:32:11.509Z,15.90
2023-04-10T15:34:42.096Z,15.87
2023-04-10T15:37:10.034Z,16.17
2023-04-10T15:39:38.022Z,16.03
2023-04-10T15:42:07.717Z,16.16
2023-04-10T15:44:37.381Z,16.25
2023-04-10T15:47:05.379Z,16.16
2023-04-10T15:49:37.725Z,16.17
2023-04-10T15:52:08.263Z,16.12
2023-04-10T15:54:39.562Z,16.16
2023-04-10T15:57:07.592Z,16.77
2023-04-10T15:59:36.201Z,16.27
2023-04-10T16:02:04.653Z,15.77
2023-04-10T16:04:33.191Z,16.36
2023-04-10T16:07:01.501Z,15.93
2023-04-10T16:09:29.528Z,16.15
2023-04-10T16:11:58.078Z,16.05
2023-04-10T16:14:26.090Z,16.02
2023-04-10T16:16:54.179Z,15.89
2023-04-10T16:19:22.878Z,16.30
2023-04-10T16:21:53.027Z,16.23
2023-04-10T16:24:21.037Z,15.88
2023-04-10T16:26:49.559Z,15.52
2023-04-10T16:29:20.061Z,15.43
2023-04-10T16:31:48.241Z,15.25
2023-04-10T16:34:16.725Z,14.96
2023-04-10T16:36:44.663Z,15.15
2023-04-10T16:39:12.612Z,15.23
2023-04-10T16:41:40.926Z,15.73
2023-04-10T16:44:08.885Z,14.94
2023-04-10T16:46:36.927Z,14.90
2023-04-10T16:49:05.388Z,14.74
2023-04-10T16:51:33.390Z,14.94
2023-04-10T16:54:01.435Z,14.82
2023-04-10T16:56:32.804Z,14.94
2023-04-10T16:59:00.940Z,15.04
2023-04-10T17:01:28.923Z,14.92
2023-04-10T17:03:57.626Z,15.12
2023-04-10T17:06:25.962Z,14.77
2023-04-10T17:08:54.253Z,14.96
2023-04-10T17:11:22.681Z,14.83
2023-04-10T17:13:50.553Z,14.92
2023-04-10T17:16:18.474Z,14.49
2023-04-10T17:18:46.814Z,14.26
2023-04-10T17:21:14.966Z,14.45
2023-04-10T17:23:43.023Z,14.62
2023-04-10T17:26:16.115Z,14.57
2023-04-10T17:28:47.519Z,14.46
2023-04-10T17:31:17.261Z,14.49
2023-04-10T17:33:45.233Z,14.55
2023-04-10T17:36:13.725Z,14.56
2023-04-10T17:38:42.544Z,14.76
2023-04-10T17:41:10.672Z,14.19
2023-04-10T17:43:38.734Z,14.53
2023-04-10T17:46:07.252Z,14.59
2023-04-10T17:48:35.297Z,14.71
2023-04-10T17:51:09.164Z,14.78
2023-04-10T17:53:37.824Z,14.58
2023-04-10T17:56:08.166Z,14.32
2023-04-10T17:58:36.280Z,14.33
2023-04-10T18:01:04.851Z,14.37
2023-04-10T18:03:33.509Z,14.33
2023-04-10T18:06:01.931Z,14.20
2023-04-10T18:08:29.834Z,14.45
2023-04-10T18:10:58.417Z,13.99
2023-04-10T18:13:26.419Z,14.17
2023-04-10T18:15:54.355Z,13.99
2023-04-10T18:18:22.736Z,13.94
2023-04-10T18:20:50.700Z,13.97
2023-04-10T18:23:18.757Z,14.02
2023-04-10T18:25:57.197Z,14.12
2023-04-10T18:28:25.917Z,13.98
2023-04-10T18:30:57.026Z,13.65
2023-04-10T18:33:26.314Z,14.01
2023-04-10T18:35:59.244Z,14.37
2023-04-10T18:38:27.475Z,14.20
2023-04-10T18:40:57.382Z,13.89
2023-04-10T18:43:27.653Z,13.93
2023-04-10T18:45:56.063Z,13.88
2023-04-10T18:48:24.106Z,13.92
2023-04-10T18:50:55.906Z,13.63
2023-04-10T18:53:24.227Z,14.07
2023-04-10T18:55:53.243Z,13.59
2023-04-10T18:58:22.100Z,12.92
2023-04-10T19:00:50.567Z,12.98
2023-04-10T19:03:18.703Z,13.03
2023-04-10T19:05:46.948Z,12.76
2023-04-10T19:08:15.984Z,12.42
2023-04-10T19:10:44.026Z,12.37
2023-04-10T19:13:12.607Z,12.37
2023-04-10T19:15:46.062Z,12.60
2023-04-10T19:18:15.853Z,13.03
2023-04-10T19:20:49.796Z,13.12
2023-04-10T19:23:20.887Z,13.54
2023-04-10T19:25:55.421Z,13.46
2023-04-10T19:28:23.746Z,12.61
2023-04-10T19:30:52.850Z,12.51
2023-04-10T19:33:20.840Z,12.38
2023-04-10T19:35:49.012Z,12.40
2023-04-10T19:38:17.616Z,12.51
2023-04-10T19:40:45.659Z,12.60
2023-04-10T19:43:13.900Z,12.99
2023-04-10T19:45:42.441Z,12.78
2023-04-10T19:48:10.421Z,12.75
2023-04-10T19:50:38.388Z,12.59
2023-04-10T19:53:06.769Z,12.67
2023-04-10T19:55:34.702Z,13.02
2023-04-10T19:58:02.959Z,13.32
2023-04-10T20:00:31.184Z,13.09
2023-04-10T20:02:59.788Z,12.93
2023-04-10T20:05:27.976Z,13.07
2023-04-10T20:07:56.086Z,13.09
2023-04-10T20:10:24.457Z,13.03
2023-04-10T20:12:52.374Z,12.94
2023-04-10T20:15:21.444Z,12.96
2023-04-10T20:17:49.803Z,12.78
2023-04-10T20:20:18.112Z,12.78
2023-04-10T20:22:46.006Z,12.87
2023-04-10T20:25:14.379Z,12.56
2023-04-10T20:27:42.341Z,12.30
2023-04-10T20:30:10.931Z,11.52
2023-04-10T20:32:39.331Z,11.89
2023-04-10T20:35:07.905Z,11.78
2023-04-10T20:37:35.891Z,12.03
2023-04-10T20:40:04.633Z,11.92
2023-04-10T20:42:32.646Z,11.92
2023-04-10T20:45:00.534Z,11.81
2023-04-10T20:47:29.400Z,11.09
2023-04-10T20:49:57.442Z,10.63
2023-04-10T20:52:25.631Z,11.30
2023-04-10T20:54:53.983Z,11.15
2023-04-10T20:57:22.018Z,11.24
2023-04-10T20:59:50.069Z,11.07
2023-04-10T21:02:18.722Z,11.11
2023-04-10T21:04:46.824Z,10.78
2023-04-10T21:07:14.796Z,9.82
2023-04-10T21:09:43.088Z,9.54
2023-04-10T21:12:11.041Z,9.12
2023-04-10T21:14:38.934Z,9.57
2023-04-10T21:17:07.404Z,9.35
2023-04-10T21:19:35.396Z,9.06
2023-04-10T21:22:03.358Z,8.79
2023-04-10T21:24:31.578Z,8.38
2023-04-10T21:26:59.484Z,7.97
2023-04-10T21:29:27.377Z,8.50
2023-04-10T21:31:55.726Z,8.47
2023-04-10T21:34:23.683Z,8.01
2023-04-10T21:36:51.569Z,7.57
2023-04-10T21:39:19.951Z,7.16
2023-04-10T21:41:47.832Z,7.40
2023-04-10T21:44:15.808Z,7.52
2023-04-10T21:46:44.165Z,7.01
2023-04-10T21:49:12.127Z,6.81
2023-04-10T21:51:42.839Z,6.44
2023-04-10T21:54:11.060Z,6.31
2023-04-10T21:56:41.124Z,6.55
2023-04-10T21:59:09.093Z,6.46
2023-04-10T22:01:37.563Z,6.03
2023-04-10T22:04:06.178Z,6.41
2023-04-10T22:06:34.472Z,6.08
2023-04-10T22:09:02.446Z,6.19
2023-04-10T22:11:30.818Z,5.32
2023-04-10T22:14:02.962Z,5.20
2023-04-10T22:16:41.363Z,5.31
2023-04-10T22:19:09.338Z,5.24
2023-04-10T22:21:37.451Z,5.77
2023-04-10T22:24:06.435Z,5.50
2023-04-10T22:26:35.220Z,5.95
2023-04-10T22:29:04.224Z,6.10
2023-04-10T22:31:32.527Z,5.62
2023-04-10T22:34:00.443Z,5.45
2023-04-10T22:36:33.828Z,5.48
2023-04-10T22:39:02.161Z,5.49
2023-04-10T22:41:30.703Z,5.51
2023-04-10T22:43:58.840Z,5.34
2023-04-10T22:46:27.201Z,5.25
2023-04-10T22:48:56.764Z,5.87
2023-04-10T22:51:24.898Z,5.67
2023-04-10T22:53:53.788Z,6.45
2023-04-10T22:56:26.390Z,6.14
2023-04-10T22:58:55.175Z,5.75
2023-04-10T23:01:23.371Z,5.75
2023-04-10T23:03:53.984Z,5.72
2023-04-10T23:06:22.414Z,5.69
2023-04-10T23:08:51.774Z,6.33
2023-04-10T23:11:19.705Z,6.03
2023-04-10T23:13:48.975Z,6.06
2023-04-10T23:16:17.180Z,6.30
2023-04-10T23:18:45.152Z,6.47
2023-04-10T23:21:13.576Z,6.55
2023-04-10T23:23:41.486Z,6.15
2023-04-10T23:26:11.657Z,5.71
2023-04-10T23:28:40.074Z,5.80
2023-04-10T23:31:09.317Z,5.65
2023-04-10T23:33:37.359Z,5.45
2023-04-10T23:36:06.142Z,5.12
2023-04-10T23:38:34.001Z,6.35
2023-04-10T23:41:03.203Z,6.26
2023-04-10T23:43:31.484Z,6.49
2023-04-10T23:45:59.861Z,6.14
2023-04-10T23:48:27.787Z,5.60
2023-04-10T23:51:06.745Z,5.91
2023-04-10T23:53:35.090Z,6.01
2023-04-10T23:56:03.422Z,5.41
2023-04-10T23:58:31.360Z,5.05
